createdAt,value
2019-03-15T00:01:46.267Z,3.06
2019-03-15T00:04:16.726Z,3.05
2019-03-15T00:06:47.141Z,3.09
2019-03-15T00:09:17.609Z,3.07
2019-03-15T00:11:48.000Z,3.11
2019-03-15T00:14:18.362Z,2.85
2019-03-15T00:16:48.773Z,2.89
2019-03-15T00:19:19.212Z,2.98
2019-03-15T00:21:49.613Z,2.92
2019-03-15T00:24:19.996Z,3.02
2019-03-15T00:26:50.395Z,3.06
2019-03-15T00:29:20.861Z,3.09
2019-03-15T00:31:51.256Z,3.01
2019-03-15T00:34:22.621Z,2.96
2019-03-15T00:36:53.035Z,3.04
2019-03-15T00:39:23.524Z,2.95
2019-03-15T00:41:53.940Z,3.02
2019-03-15T00:44:24.436Z,3.06
2019-03-15T00:46:54.878Z,3.07
2019-03-15T00:49:25.348Z,2.96
2019-03-15T00:51:55.774Z,2.94
2019-03-15T00:54:26.224Z,2.87
2019-03-15T00:56:56.647Z,2.84
2019-03-15T00:59:27.102Z,2.77
2019-03-15T01:01:57.510Z,2.74
2019-03-15T01:04:27.980Z,2.71
2019-03-15T01:06:58.401Z,2.81
2019-03-15T01:09:29.126Z,2.72
2019-03-15T01:11:59.593Z,2.61
2019-03-15T01:14:30.078Z,2.63
2019-03-15T01:17:00.678Z,2.65
2019-03-15T01:19:31.244Z,2.65
2019-03-15T01:22:01.689Z,2.63
2019-03-15T01:24:32.143Z,2.65
2019-03-15T01:27:02.551Z,2.65
2019-03-15T01:29:33.018Z,2.67
2019-03-15T01:32:03.433Z,2.61
2019-03-15T01:34:34.873Z,2.69
2019-03-15T01:37:05.282Z,2.65
2019-03-15T01:39:35.761Z,2.48
2019-03-15T01:42:06.196Z,2.42
2019-03-15T01:44:36.658Z,2.26
2019-03-15T01:47:07.108Z,2.31
2019-03-15T01:49:37.587Z,2.27
2019-03-15T01:52:08.024Z,2.21
2019-03-15T01:54:38.512Z,2.21
2019-03-15T01:57:08.966Z,2.24
2019-03-15T01:59:39.435Z,2.28
2019-03-15T02:02:09.852Z,2.34
2019-03-15T02:04:40.322Z,2.28
2019-03-15T02:07:10.741Z,2.33
2019-03-15T02:09:41.196Z,2.28
2019-03-15T02:12:11.620Z,2.34
2019-03-15T02:14:42.100Z,2.34
2019-03-15T02:17:12.532Z,2.29
2019-03-15T02:19:42.982Z,2.36
2019-03-15T02:22:13.381Z,2.35
2019-03-15T02:24:43.897Z,2.23
2019-03-15T02:27:14.320Z,2.25
2019-03-15T02:29:44.803Z,2.25
2019-03-15T02:32:15.313Z,2.22
2019-03-15T02:34:47.333Z,2.09
2019-03-15T02:37:17.758Z,2.09
2019-03-15T02:39:48.240Z,2.18
2019-03-15T02:42:18.678Z,2.14
2019-03-15T02:44:49.143Z,2.11
2019-03-15T02:47:19.861Z,2.08
2019-03-15T02:49:50.294Z,2.07
2019-03-15T02:52:20.657Z,2.07
2019-03-15T02:54:51.126Z,2.02
2019-03-15T02:57:21.555Z,2.09
2019-03-15T02:59:52.016Z,2.07
2019-03-15T03:02:22.440Z,2.12
2019-03-15T03:04:52.931Z,1.97
2019-03-15T03:07:23.363Z,1.95
2019-03-15T03:09:53.842Z,1.99
2019-03-15T03:12:24.296Z,1.97
2019-03-15T03:14:54.787Z,1.96
2019-03-15T03:17:25.216Z,1.94
2019-03-15T03:19:55.701Z,1.92
2019-03-15T03:22:26.144Z,2.01
2019-03-15T03:24:56.631Z,1.96
2019-03-15T03:27:27.089Z,2.00
2019-03-15T03:29:57.583Z,2.04
2019-03-15T03:32:28.033Z,2.06
2019-03-15T03:34:58.642Z,2.03
2019-03-15T03:37:29.133Z,1.99
2019-03-15T03:40:01.317Z,1.98
2019-03-15T03:42:31.721Z,1.99
2019-03-15T03:45:02.222Z,1.98
2019-03-15T03:47:32.977Z,2.08
2019-03-15T03:50:05.504Z,2.15
2019-03-15T03:52:35.952Z,2.14
2019-03-15T03:55:07.417Z,2.20
2019-03-15T03:57:37.844Z,2.16
2019-03-15T04:00:11.429Z,2.12
2019-03-15T04:02:41.845Z,2.05
2019-03-15T04:05:12.432Z,2.01
2019-03-15T04:07:42.878Z,1.94
2019-03-15T04:10:13.475Z,2.04
2019-03-15T04:12:43.917Z,2.03
2019-03-15T04:15:14.394Z,1.98
2019-03-15T04:17:44.972Z,1.98
2019-03-15T04:20:15.475Z,1.88
2019-03-15T04:22:45.893Z,1.93
2019-03-15T04:25:16.379Z,1.87
2019-03-15T04:27:46.852Z,1.85
2019-03-15T04:30:17.302Z,1.80
2019-03-15T04:32:47.718Z,1.99
2019-03-15T04:35:19.255Z,1.95
2019-03-15T04:37:49.682Z,1.89
2019-03-15T04:40:20.194Z,1.89
2019-03-15T04:42:50.621Z,1.96
2019-03-15T04:45:21.089Z,2.01
2019-03-15T04:47:51.530Z,1.92
2019-03-15T04:50:22.012Z,1.92
2019-03-15T04:52:52.429Z,2.01
2019-03-15T04:55:22.908Z,2.06
2019-03-15T04:57:53.328Z,2.12
2019-03-15T05:00:23.839Z,2.24
2019-03-15T05:02:54.241Z,2.38
2019-03-15T05:05:24.697Z,2.31
2019-03-15T05:07:55.146Z,2.27
2019-03-15T05:10:25.622Z,2.31
2019-03-15T05:12:56.066Z,2.29
2019-03-15T05:15:26.543Z,2.30
2019-03-15T05:17:56.975Z,2.34
2019-03-15T05:20:27.503Z,2.44
2019-03-15T05:22:57.932Z,2.62
2019-03-15T05:25:29.934Z,2.61
2019-03-15T05:28:00.501Z,2.66
2019-03-15T05:30:31.555Z,2.76
2019-03-15T05:33:01.998Z,2.68
2019-03-15T05:35:33.431Z,2.78
2019-03-15T05:38:03.884Z,2.99
2019-03-15T05:40:34.346Z,3.17
2019-03-15T05:43:04.792Z,3.51
2019-03-15T05:45:35.297Z,3.67
2019-03-15T05:48:05.751Z,3.56
2019-03-15T05:50:36.239Z,3.65
2019-03-15T05:53:06.703Z,3.57
2019-03-15T05:55:37.214Z,3.52
2019-03-15T05:58:07.753Z,3.56
2019-03-15T06:00:38.233Z,3.68
2019-03-15T06:03:12.181Z,3.40
2019-03-15T06:05:40.883Z,3.67
2019-03-15T06:08:11.334Z,4.09
2019-03-15T06:10:41.818Z,4.24
2019-03-15T06:13:12.306Z,4.34
2019-03-15T06:15:42.831Z,4.45
2019-03-15T06:18:13.305Z,4.69
2019-03-15T06:20:43.816Z,4.90
2019-03-15T06:23:16.839Z,4.80
2019-03-15T06:25:46.473Z,4.89
2019-03-15T06:28:16.930Z,5.01
2019-03-15T06:30:48.025Z,4.98
2019-03-15T06:33:18.471Z,5.00
2019-03-15T06:35:49.939Z,5.11
2019-03-15T06:38:20.401Z,5.34
2019-03-15T06:40:50.913Z,5.21
2019-03-15T06:43:21.358Z,5.15
2019-03-15T06:45:51.854Z,5.22
2019-03-15T06:48:22.281Z,4.76
2019-03-15T06:50:52.754Z,4.36
2019-03-15T06:53:24.099Z,4.66
2019-03-15T06:55:54.595Z,4.53
2019-03-15T06:58:25.026Z,4.48
2019-03-15T07:00:55.502Z,4.89
2019-03-15T07:03:25.962Z,5.02
2019-03-15T07:05:56.462Z,5.08
2019-03-15T07:08:26.908Z,5.47
2019-03-15T07:10:57.414Z,5.37
2019-03-15T07:13:28.138Z,5.37
2019-03-15T07:15:58.631Z,5.31
2019-03-15T07:18:29.051Z,5.20
2019-03-15T07:20:59.541Z,5.20
2019-03-15T07:23:29.961Z,5.84
2019-03-15T07:26:00.446Z,6.15
2019-03-15T07:28:30.869Z,6.09
2019-03-15T07:31:01.332Z,5.99
2019-03-15T07:33:33.351Z,5.84
2019-03-15T07:36:04.763Z,5.93
2019-03-15T07:38:35.228Z,6.16
2019-03-15T07:41:05.756Z,6.12
2019-03-15T07:43:36.246Z,6.18
2019-03-15T07:46:07.147Z,6.29
2019-03-15T07:48:37.698Z,5.76
2019-03-15T07:51:08.174Z,5.81
2019-03-15T07:53:38.672Z,5.56
2019-03-15T07:56:09.156Z,5.65
2019-03-15T07:58:39.659Z,5.81
2019-03-15T08:01:10.202Z,5.95
2019-03-15T08:03:40.626Z,6.29
2019-03-15T08:06:11.113Z,6.54
2019-03-15T08:08:41.607Z,6.60
2019-03-15T08:11:12.242Z,6.51
2019-03-15T08:13:42.755Z,6.90
2019-03-15T08:16:23.469Z,6.74
2019-03-15T08:18:54.870Z,6.99
2019-03-15T08:21:25.918Z,6.99
2019-03-15T08:23:58.013Z,7.02
2019-03-15T08:26:33.904Z,6.78
2019-03-15T08:29:04.309Z,6.78
2019-03-15T08:31:36.591Z,6.82
2019-03-15T08:34:06.999Z,6.92
2019-03-15T08:36:38.472Z,7.14
2019-03-15T08:39:09.181Z,7.27
2019-03-15T08:41:39.840Z,7.22
2019-03-15T08:44:13.662Z,6.87
2019-03-15T08:46:44.159Z,7.00
2019-03-15T08:49:17.037Z,6.66
2019-03-15T08:51:47.616Z,6.49
2019-03-15T08:54:20.000Z,6.49
2019-03-15T08:56:50.838Z,6.45
2019-03-15T08:59:21.226Z,6.90
2019-03-15T09:01:51.798Z,7.02
2019-03-15T09:04:23.468Z,6.92
2019-03-15T09:06:54.160Z,6.87
2019-03-15T09:09:24.826Z,6.87
2019-03-15T09:11:55.461Z,6.91
2019-03-15T09:14:26.230Z,7.23
2019-03-15T09:16:58.455Z,7.07
2019-03-15T09:19:28.908Z,6.93
2019-03-15T09:22:00.691Z,6.72
2019-03-15T09:24:32.310Z,6.63
2019-03-15T09:27:02.756Z,6.88
2019-03-15T09:29:36.392Z,6.88
2019-03-15T09:32:09.626Z,6.87
2019-03-15T09:34:40.025Z,7.10
2019-03-15T09:37:14.025Z,7.21
2019-03-15T09:39:44.651Z,7.29
2019-03-15T09:42:17.652Z,7.43
2019-03-15T09:44:48.168Z,7.70
2019-03-15T09:47:18.764Z,7.46
2019-03-15T09:49:49.300Z,7.61
2019-03-15T09:52:20.549Z,7.55
2019-03-15T09:54:57.863Z,7.69
2019-03-15T09:57:28.774Z,7.70
2019-03-15T09:59:59.169Z,7.13
2019-03-15T10:02:30.926Z,6.93
2019-03-15T10:05:10.828Z,6.49
2019-03-15T10:07:38.752Z,6.46
2019-03-15T10:10:19.399Z,6.59
2019-03-15T10:13:04.708Z,6.81
2019-03-15T10:15:26.579Z,6.55
2019-03-15T10:18:01.121Z,6.48
2019-03-15T10:20:31.548Z,6.62
2019-03-15T10:23:06.097Z,6.43
2019-03-15T10:25:46.354Z,6.47
2019-03-15T10:28:06.501Z,6.46
2019-03-15T10:30:36.926Z,6.59
2019-03-15T10:33:09.427Z,6.89
2019-03-15T10:35:40.262Z,7.29
2019-03-15T10:38:10.923Z,7.14
2019-03-15T10:40:41.345Z,7.15
2019-03-15T10:43:18.616Z,7.26
2019-03-15T10:45:51.481Z,6.88
2019-03-15T10:52:15.227Z,6.67
2019-03-15T10:54:45.680Z,6.51
2019-03-15T10:57:23.765Z,6.48
2019-03-15T10:59:57.348Z,6.49
2019-03-15T11:02:27.960Z,6.69
2019-03-15T11:04:58.423Z,6.73
2019-03-15T11:07:28.999Z,6.70
2019-03-15T11:09:59.597Z,6.74
2019-03-15T11:12:30.175Z,6.89
2019-03-15T11:15:00.637Z,6.84
2019-03-15T11:17:31.060Z,7.12
2019-03-15T11:20:02.162Z,6.89
2019-03-15T11:22:34.524Z,6.69
2019-03-15T11:25:07.370Z,6.67
2019-03-15T11:27:39.437Z,6.96
2019-03-15T11:30:14.982Z,6.90
2019-03-15T11:32:45.505Z,7.13
2019-03-15T11:35:15.996Z,6.88
2019-03-15T11:37:49.747Z,6.88
2019-03-15T11:40:20.608Z,6.59
2019-03-15T11:42:54.701Z,6.56
2019-03-15T11:45:25.175Z,6.57
2019-03-15T11:48:03.819Z,6.47
2019-03-15T11:50:41.128Z,6.40
2019-03-15T11:53:18.859Z,6.44
2019-03-15T11:55:52.926Z,6.52
2019-03-15T11:58:24.812Z,6.97
2019-03-15T12:00:58.972Z,7.17
2019-03-15T12:03:32.654Z,7.43
2019-03-15T12:06:03.551Z,7.59
2019-03-15T12:08:34.031Z,7.80
2019-03-15T12:11:05.389Z,7.85
2019-03-15T12:13:38.803Z,7.63
2019-03-15T12:16:12.210Z,6.94
2019-03-15T12:18:42.689Z,7.59
2019-03-15T12:21:14.497Z,7.69
2019-03-15T12:23:48.044Z,7.71
2019-03-15T12:26:18.814Z,7.42
2019-03-15T12:28:49.389Z,7.42
2019-03-15T12:31:24.380Z,7.52
2019-03-15T12:33:56.244Z,7.49
2019-03-15T12:36:26.774Z,7.42
2019-03-15T12:38:58.531Z,7.72
2019-03-15T12:41:29.722Z,7.71
2019-03-15T12:44:00.202Z,7.25
2019-03-15T12:46:30.853Z,7.40
2019-03-15T12:49:01.249Z,6.89
2019-03-15T12:51:32.535Z,7.03
2019-03-15T12:54:03.362Z,7.00
2019-03-15T12:56:33.896Z,6.56
2019-03-15T12:59:04.317Z,6.57
2019-03-15T13:01:34.925Z,6.75
2019-03-15T13:04:05.392Z,6.63
2019-03-15T13:06:41.093Z,6.73
2019-03-15T13:09:14.771Z,6.68
2019-03-15T13:11:45.312Z,6.67
2019-03-15T13:14:15.861Z,6.83
2019-03-15T13:16:48.425Z,7.02
2019-03-15T13:19:19.012Z,6.88
2019-03-15T13:21:49.583Z,6.77
2019-03-15T13:24:20.036Z,6.82
2019-03-15T13:26:52.009Z,6.93
2019-03-15T13:29:28.457Z,6.73
2019-03-15T13:31:58.839Z,6.74
2019-03-15T13:34:29.239Z,7.35
2019-03-15T13:36:59.698Z,7.21
2019-03-15T13:39:32.156Z,7.30
2019-03-15T13:42:03.864Z,7.00
2019-03-15T13:44:34.320Z,6.63
2019-03-15T13:47:05.048Z,6.62
2019-03-15T13:49:41.041Z,6.67
2019-03-15T13:52:10.982Z,6.61
2019-03-15T13:54:44.191Z,6.68
2019-03-15T13:57:21.197Z,6.72
2019-03-15T13:59:46.867Z,6.48
2019-03-15T14:02:17.366Z,6.45
2019-03-15T14:04:47.771Z,6.39
2019-03-15T14:07:19.957Z,6.38
2019-03-15T14:09:50.412Z,6.33
2019-03-15T14:12:20.873Z,6.26
2019-03-15T14:14:51.288Z,6.25
2019-03-15T14:17:22.073Z,6.16
2019-03-15T14:19:52.546Z,6.19
2019-03-15T14:22:24.406Z,6.04
2019-03-15T14:24:56.062Z,6.07
2019-03-15T14:27:36.902Z,6.10
2019-03-15T14:29:59.862Z,5.98
2019-03-15T14:32:30.471Z,5.96
2019-03-15T14:35:01.185Z,5.81
2019-03-15T14:37:31.890Z,5.63
2019-03-15T14:40:02.706Z,5.61
2019-03-15T14:42:34.396Z,5.63
2019-03-15T14:45:07.090Z,5.71
2019-03-15T14:47:38.043Z,5.53
2019-03-15T14:50:13.201Z,5.55
2019-03-15T14:52:43.942Z,5.53
2019-03-15T14:55:17.813Z,5.36
2019-03-15T14:57:53.298Z,5.40
2019-03-15T15:00:21.174Z,5.44
2019-03-15T15:02:54.415Z,5.51
2019-03-15T15:05:24.919Z,5.59
2019-03-15T15:07:55.394Z,5.50
2019-03-15T15:10:25.841Z,5.35
2019-03-15T15:12:56.578Z,5.37
2019-03-15T15:15:28.505Z,5.40
2019-03-15T15:17:59.018Z,5.33
2019-03-15T15:20:29.585Z,5.24
2019-03-15T15:23:00.031Z,5.21
2019-03-15T15:25:30.416Z,5.23
2019-03-15T15:28:04.826Z,5.23
2019-03-15T15:30:32.985Z,5.19
2019-03-15T15:33:03.438Z,5.21
2019-03-15T15:35:37.891Z,5.08
2019-03-15T15:38:10.682Z,5.17
2019-03-15T15:40:41.177Z,5.06
2019-03-15T15:43:12.778Z,5.04
2019-03-15T15:45:43.405Z,5.02
2019-03-15T15:48:13.997Z,4.95
2019-03-15T15:50:44.453Z,4.93
2019-03-15T15:53:14.930Z,4.92
2019-03-15T15:55:45.386Z,4.85
2019-03-15T15:58:18.181Z,4.83
2019-03-15T16:00:48.120Z,4.89
2019-03-15T16:03:21.015Z,4.96
2019-03-15T16:05:51.637Z,5.00
2019-03-15T16:08:22.193Z,4.91
2019-03-15T16:10:52.679Z,4.94
2019-03-15T16:13:23.285Z,4.86
2019-03-15T16:15:53.779Z,4.71
2019-03-15T16:18:26.938Z,4.79
2019-03-15T16:20:57.583Z,4.78
2019-03-15T16:23:30.360Z,4.86
2019-03-15T16:26:00.278Z,4.78
2019-03-15T16:28:34.556Z,4.66
2019-03-15T16:31:02.965Z,4.66
2019-03-15T16:33:33.494Z,4.77
2019-03-15T16:36:03.922Z,4.85
2019-03-15T16:38:34.437Z,4.82
2019-03-15T16:41:04.903Z,4.69
2019-03-15T16:43:38.792Z,4.74
2019-03-15T16:46:09.277Z,4.61
2019-03-15T16:48:39.784Z,4.62
2019-03-15T16:51:19.523Z,4.55
2019-03-15T16:53:42.471Z,4.60
2019-03-15T16:56:12.942Z,4.60
2019-03-15T16:58:45.600Z,4.60
2019-03-15T17:01:15.656Z,4.46
2019-03-15T17:03:46.177Z,4.44
2019-03-15T17:06:16.667Z,4.40
2019-03-15T17:08:47.202Z,4.34
2019-03-15T17:11:17.661Z,4.40
2019-03-15T17:13:48.191Z,4.34
2019-03-15T17:16:18.811Z,4.39
2019-03-15T17:18:49.406Z,4.30
2019-03-15T17:21:19.902Z,4.39
2019-03-15T17:23:50.414Z,4.39
2019-03-15T17:26:20.912Z,4.36
2019-03-15T17:28:58.573Z,4.38
2019-03-15T17:31:25.088Z,4.43
2019-03-15T17:33:55.642Z,4.37
2019-03-15T17:36:27.593Z,4.33
2019-03-15T17:38:58.108Z,4.48
2019-03-15T17:41:28.589Z,4.33
2019-03-15T17:44:00.098Z,4.30
2019-03-15T17:46:30.577Z,4.33
2019-03-15T17:49:01.112Z,4.35
2019-03-15T17:51:31.605Z,4.39
2019-03-15T17:54:02.157Z,4.29
2019-03-15T17:56:32.672Z,4.32
2019-03-15T17:59:12.415Z,4.30
2019-03-15T18:01:35.428Z,4.32
2019-03-15T18:04:06.194Z,4.21
2019-03-15T18:06:36.689Z,4.15
2019-03-15T18:09:07.206Z,4.14
2019-03-15T18:11:37.722Z,4.33
2019-03-15T18:14:08.256Z,4.29
2019-03-15T18:16:38.751Z,4.22
2019-03-15T18:19:09.264Z,4.26
2019-03-15T18:21:42.462Z,4.13
2019-03-15T18:24:13.086Z,4.16
2019-03-15T18:26:43.533Z,4.17
2019-03-15T18:29:25.698Z,4.12
2019-03-15T18:31:46.231Z,4.05
2019-03-15T18:34:16.762Z,4.17
2019-03-15T18:36:47.205Z,4.11
2019-03-15T18:39:17.727Z,4.09
2019-03-15T18:41:50.598Z,4.00
2019-03-15T18:44:21.479Z,4.08
2019-03-15T18:46:51.950Z,4.14
2019-03-15T18:49:22.495Z,4.14
2019-03-15T18:51:52.930Z,4.10
2019-03-15T18:54:23.454Z,4.07
2019-03-15T18:56:53.963Z,4.15
2019-03-15T18:59:24.497Z,4.09
2019-03-15T19:01:54.961Z,4.04
2019-03-15T19:04:25.479Z,4.07
2019-03-15T19:06:55.947Z,3.95
2019-03-15T19:09:26.470Z,4.01
2019-03-15T19:11:56.951Z,3.90
2019-03-15T19:14:27.494Z,3.92
2019-03-15T19:16:57.950Z,4.03
2019-03-15T19:19:28.497Z,4.04
2019-03-15T19:21:58.947Z,4.05
2019-03-15T19:24:29.451Z,4.16
2019-03-15T19:26:59.948Z,3.99
2019-03-15T19:29:30.510Z,4.00
2019-03-15T19:32:00.971Z,3.97
2019-03-15T19:34:31.508Z,4.12
2019-03-15T19:37:02.028Z,3.89
2019-03-15T19:39:32.562Z,3.83
2019-03-15T19:42:03.031Z,3.89
2019-03-15T19:44:34.492Z,3.87
2019-03-15T19:47:04.984Z,3.88
2019-03-15T19:49:35.606Z,3.84
2019-03-15T19:52:06.163Z,3.88
2019-03-15T19:54:36.707Z,3.90
2019-03-15T19:57:07.209Z,3.80
2019-03-15T19:59:37.730Z,3.87
2019-03-15T20:02:08.254Z,3.92
2019-03-15T20:04:38.803Z,3.92
2019-03-15T20:07:09.268Z,3.94
2019-03-15T20:09:39.774Z,3.94
2019-03-15T20:12:10.283Z,3.99
2019-03-15T20:14:40.824Z,4.08
2019-03-15T20:17:11.282Z,4.05
2019-03-15T20:19:41.789Z,3.90
2019-03-15T20:22:12.268Z,3.98
2019-03-15T20:24:42.784Z,3.92
2019-03-15T20:27:13.241Z,3.91
2019-03-15T20:29:43.759Z,3.90
2019-03-15T20:32:14.236Z,3.70
2019-03-15T20:34:44.749Z,3.82
2019-03-15T20:37:15.191Z,3.84
2019-03-15T20:39:45.798Z,3.88
2019-03-15T20:42:16.256Z,3.75
2019-03-15T20:44:47.828Z,3.75
2019-03-15T20:47:18.293Z,3.81
2019-03-15T20:49:48.803Z,3.81
2019-03-15T20:52:19.276Z,3.86
2019-03-15T20:54:49.795Z,3.86
2019-03-15T20:57:20.252Z,3.79
2019-03-15T20:59:50.812Z,3.81
2019-03-15T21:02:21.372Z,3.92
2019-03-15T21:04:51.896Z,3.79
2019-03-15T21:07:22.373Z,3.85
2019-03-15T21:09:52.930Z,3.80
2019-03-15T21:12:23.377Z,3.93
2019-03-15T21:14:53.904Z,3.92
2019-03-15T21:17:24.372Z,4.01
2019-03-15T21:19:54.880Z,3.99
2019-03-15T21:22:25.335Z,3.83
2019-03-15T21:24:55.849Z,3.84
2019-03-15T21:27:26.321Z,3.84
2019-03-15T21:29:56.906Z,3.77
2019-03-15T21:32:27.381Z,3.82
2019-03-15T21:34:57.940Z,3.75
2019-03-15T21:37:29.743Z,3.87
2019-03-15T21:40:00.542Z,3.87
2019-03-15T21:42:31.011Z,4.00
2019-03-15T21:45:02.547Z,3.86
2019-03-15T21:47:33.015Z,3.82
2019-03-15T21:50:04.333Z,3.84
2019-03-15T21:52:34.793Z,3.79
2019-03-15T21:55:06.016Z,3.72
2019-03-15T21:57:36.471Z,3.51
2019-03-15T22:00:18.117Z,3.69
2019-03-15T22:02:48.611Z,3.48
2019-03-15T22:05:19.139Z,3.66
2019-03-15T22:07:49.618Z,3.84
2019-03-15T22:10:20.147Z,3.71
2019-03-15T22:12:50.615Z,3.71
2019-03-15T22:15:21.146Z,3.81
2019-03-15T22:17:51.762Z,3.75
2019-03-15T22:20:22.312Z,3.65
2019-03-15T22:22:52.780Z,3.64
2019-03-15T22:25:23.291Z,3.69
2019-03-15T22:27:53.858Z,3.43
2019-03-15T22:30:24.368Z,3.49
2019-03-15T22:32:54.853Z,3.57
2019-03-15T22:35:25.336Z,3.76
2019-03-15T22:37:55.829Z,3.79
2019-03-15T22:40:26.368Z,3.78
2019-03-15T22:42:56.906Z,3.75
2019-03-15T22:45:28.462Z,3.84
2019-03-15T22:47:58.938Z,3.86
2019-03-15T22:50:29.490Z,3.86
2019-03-15T22:53:01.597Z,3.74
2019-03-15T22:55:32.171Z,3.64
2019-03-15T22:58:02.638Z,3.59
2019-03-15T23:00:37.461Z,3.74
2019-03-15T23:03:08.032Z,3.72
2019-03-15T23:05:38.600Z,3.68
2019-03-15T23:08:09.098Z,3.65
2019-03-15T23:10:39.601Z,3.66
2019-03-15T23:13:10.091Z,3.62
2019-03-15T23:15:40.645Z,3.57
2019-03-15T23:18:11.133Z,3.58
2019-03-15T23:20:41.686Z,3.58
2019-03-15T23:23:23.283Z,3.61
2019-03-15T23:25:44.414Z,3.49
2019-03-15T23:28:15.035Z,3.50
2019-03-15T23:30:45.564Z,3.51
2019-03-15T23:33:16.050Z,3.54
2019-03-15T23:35:53.928Z,3.49
2019-03-15T23:38:18.742Z,3.40
2019-03-15T23:40:49.259Z,3.38
2019-03-15T23:43:19.722Z,3.22
2019-03-15T23:45:51.995Z,3.30
2019-03-15T23:48:22.485Z,3.32
2019-03-15T23:50:53.073Z,3.27
2019-03-15T23:53:23.561Z,3.23
2019-03-15T23:55:55.002Z,3.16
2019-03-15T23:58:25.636Z,3.27
